createdAt,value
2019-02-02T00:00:00.333Z,61.43
2019-02-02T00:02:29.723Z,63.70
2019-02-02T00:04:58.356Z,59.23
2019-02-02T00:07:26.970Z,62.70
2019-02-02T00:09:55.613Z,63.07
2019-02-02T00:12:24.272Z,58.37
2019-02-02T00:14:53.806Z,60.13
2019-02-02T00:17:22.522Z,58.67
2019-02-02T00:19:51.255Z,58.53
2019-02-02T00:22:19.918Z,61.27
2019-02-02T00:24:48.624Z,60.07
2019-02-02T00:27:17.206Z,58.87
2019-02-02T00:29:45.938Z,57.03
2019-02-02T00:32:14.491Z,61.17
2019-02-02T00:34:43.127Z,60.53
2019-02-02T00:37:11.721Z,60.03
2019-02-02T00:39:40.333Z,64.10
2019-02-02T00:42:08.906Z,61.23
2019-02-02T00:44:37.497Z,62.07
2019-02-02T00:47:06.163Z,64.87
2019-02-02T00:49:34.714Z,61.10
2019-02-02T00:52:03.386Z,58.30
2019-02-02T00:54:31.901Z,61.47
2019-02-02T00:57:00.637Z,61.30
2019-02-02T00:59:31.299Z,60.07
2019-02-02T01:01:59.874Z,63.27
2019-02-02T01:04:28.534Z,59.97
2019-02-02T01:06:57.201Z,62.17
2019-02-02T01:09:26.406Z,59.67
2019-02-02T01:11:54.986Z,64.90
2019-02-02T01:14:23.576Z,63.90
2019-02-02T01:16:52.165Z,61.93
2019-02-02T01:19:20.868Z,64.00
2019-02-02T01:21:49.439Z,57.10
2019-02-02T01:24:18.054Z,62.80
2019-02-02T01:26:46.668Z,64.50
2019-02-02T01:29:15.312Z,61.77
2019-02-02T01:31:43.876Z,63.60
2019-02-02T01:34:12.498Z,63.37
2019-02-02T01:36:41.133Z,59.13
2019-02-02T01:39:09.762Z,63.47
2019-02-02T01:41:38.510Z,62.80
2019-02-02T01:44:07.141Z,64.40
2019-02-02T01:46:35.798Z,63.17
2019-02-02T01:49:04.457Z,59.80
2019-02-02T01:51:33.079Z,68.50
2019-02-02T01:54:01.656Z,59.77
2019-02-02T01:56:30.298Z,64.37
2019-02-02T01:58:58.850Z,60.97
2019-02-02T02:01:27.508Z,58.53
2019-02-02T02:03:56.149Z,56.27
2019-02-02T02:06:24.888Z,64.33
2019-02-02T02:08:53.459Z,60.60
2019-02-02T02:11:22.118Z,57.97
2019-02-02T02:13:50.700Z,59.47
2019-02-02T02:16:19.516Z,61.27
2019-02-02T02:18:48.200Z,59.70
2019-02-02T02:21:16.810Z,61.13
2019-02-02T02:23:45.409Z,68.70
2019-02-02T02:26:14.047Z,60.03
2019-02-02T02:28:42.621Z,62.50
2019-02-02T02:31:11.185Z,66.97
2019-02-02T02:33:39.849Z,64.10
2019-02-02T02:36:08.493Z,64.83
2019-02-02T02:38:37.116Z,62.47
2019-02-02T02:41:05.770Z,56.87
2019-02-02T02:43:34.356Z,60.17
2019-02-02T02:46:03.021Z,59.73
2019-02-02T02:48:31.663Z,66.87
2019-02-02T02:51:00.297Z,64.97
2019-02-02T02:53:28.870Z,65.93
2019-02-02T02:55:57.419Z,61.37
2019-02-02T02:58:25.979Z,64.20
2019-02-02T03:00:54.576Z,63.43
2019-02-02T03:03:23.153Z,59.10
2019-02-02T03:05:51.796Z,63.03
2019-02-02T03:08:20.469Z,59.27
2019-02-02T03:10:49.049Z,62.57
2019-02-02T03:13:17.721Z,64.03
2019-02-02T03:15:46.299Z,62.90
2019-02-02T03:18:14.854Z,60.93
2019-02-02T03:20:43.565Z,63.73
2019-02-02T03:23:12.205Z,61.97
2019-02-02T03:25:40.799Z,62.03
2019-02-02T03:28:09.433Z,67.03
2019-02-02T03:30:38.034Z,60.47
2019-02-02T03:33:06.737Z,57.47
2019-02-02T03:35:35.281Z,66.87
2019-02-02T03:38:03.985Z,65.93
2019-02-02T03:40:32.529Z,62.37
2019-02-02T03:43:01.125Z,61.67
2019-02-02T03:45:29.696Z,65.80
2019-02-02T03:47:58.422Z,63.20
2019-02-02T03:50:27.005Z,61.47
2019-02-02T03:52:55.626Z,60.70
2019-02-02T03:55:24.185Z,59.37
2019-02-02T03:57:52.762Z,68.43
2019-02-02T04:00:21.416Z,63.40
2019-02-02T04:02:49.977Z,65.70
2019-02-02T04:05:19.819Z,61.87
2019-02-02T04:07:48.407Z,62.63
2019-02-02T04:10:16.951Z,64.23
2019-02-02T04:12:45.601Z,65.37
2019-02-02T04:15:14.439Z,62.57
2019-02-02T04:17:42.991Z,62.60
2019-02-02T04:20:13.048Z,61.27
2019-02-02T04:22:41.617Z,63.97
2019-02-02T04:25:10.194Z,63.97
2019-02-02T04:27:38.850Z,69.23
2019-02-02T04:30:09.025Z,66.17
2019-02-02T04:32:37.610Z,69.47
2019-02-02T04:35:06.601Z,67.50
2019-02-02T04:37:38.094Z,67.60
2019-02-02T04:40:05.496Z,68.07
2019-02-02T04:42:34.034Z,61.63
2019-02-02T04:45:02.607Z,64.70
2019-02-02T04:47:31.238Z,64.77
2019-02-02T04:49:59.758Z,66.03
2019-02-02T04:52:28.349Z,65.63
2019-02-02T04:54:56.925Z,60.57
2019-02-02T04:57:25.543Z,62.97
2019-02-02T04:59:54.114Z,64.23
2019-02-02T05:02:22.704Z,64.73
2019-02-02T05:04:51.350Z,67.27
2019-02-02T05:07:19.956Z,65.90
2019-02-02T05:09:48.511Z,63.13
2019-02-02T05:12:17.174Z,71.50
2019-02-02T05:14:45.737Z,67.90
2019-02-02T05:17:14.325Z,64.63
2019-02-02T05:19:42.904Z,59.37
2019-02-02T05:22:11.488Z,63.90
2019-02-02T05:24:40.067Z,64.80
2019-02-02T05:27:08.669Z,64.23
2019-02-02T05:29:41.496Z,63.80
2019-02-02T05:32:07.569Z,67.10
2019-02-02T05:34:36.145Z,67.37
2019-02-02T05:37:04.711Z,68.30
2019-02-02T05:39:33.326Z,70.43
2019-02-02T05:42:01.957Z,65.13
2019-02-02T05:44:30.543Z,67.63
2019-02-02T05:46:59.115Z,66.30
2019-02-02T05:49:28.868Z,67.87
2019-02-02T05:51:57.504Z,66.87
2019-02-02T05:54:26.095Z,68.57
2019-02-02T05:56:54.683Z,67.23
2019-02-02T05:59:23.281Z,66.10
2019-02-02T06:01:51.968Z,66.87
2019-02-02T06:04:20.649Z,65.60
2019-02-02T06:06:49.217Z,69.20
2019-02-02T06:09:17.799Z,65.10
2019-02-02T06:11:46.442Z,70.07
2019-02-02T06:14:15.021Z,66.97
2019-02-02T06:16:43.597Z,65.23
2019-02-02T06:19:12.164Z,70.60
2019-02-02T06:21:40.753Z,64.77
2019-02-02T06:24:09.398Z,72.67
2019-02-02T06:26:37.957Z,68.57
2019-02-02T06:29:06.809Z,70.20
2019-02-02T06:31:35.385Z,69.47
2019-02-02T06:34:03.974Z,66.53
2019-02-02T06:36:32.813Z,67.60
2019-02-02T06:39:01.350Z,66.93
2019-02-02T06:41:31.000Z,66.30
2019-02-02T06:43:59.666Z,68.67
2019-02-02T06:46:28.333Z,72.37
2019-02-02T06:48:56.908Z,63.60
2019-02-02T06:51:25.525Z,68.30
2019-02-02T06:53:54.097Z,70.30
2019-02-02T06:56:22.688Z,67.37
2019-02-02T06:58:51.325Z,70.00
2019-02-02T07:01:19.961Z,71.70
2019-02-02T07:03:48.513Z,67.50
2019-02-02T07:06:17.092Z,68.10
2019-02-02T07:08:45.675Z,69.77
2019-02-02T07:11:14.323Z,73.70
2019-02-02T07:13:42.893Z,65.67
2019-02-02T07:16:11.484Z,69.67
2019-02-02T07:18:40.034Z,69.20
2019-02-02T07:21:08.612Z,67.27
2019-02-02T07:23:37.272Z,66.57
2019-02-02T07:26:05.999Z,67.43
2019-02-02T07:28:34.679Z,69.67
2019-02-02T07:31:04.447Z,68.67
2019-02-02T07:33:33.066Z,76.23
2019-02-02T07:36:01.655Z,70.10
2019-02-02T07:38:30.241Z,69.30
2019-02-02T07:40:58.892Z,71.03
2019-02-02T07:43:27.584Z,69.63
2019-02-02T07:45:56.157Z,72.97
2019-02-02T07:48:24.715Z,70.57
2019-02-02T07:50:53.314Z,71.70
2019-02-02T07:53:21.958Z,68.87
2019-02-02T07:55:50.551Z,69.20
2019-02-02T07:58:19.177Z,72.67
2019-02-02T08:00:47.839Z,71.30
2019-02-02T08:03:16.463Z,74.83
2019-02-02T08:05:45.071Z,78.27
2019-02-02T08:08:13.647Z,74.00
2019-02-02T08:10:42.208Z,78.53
2019-02-02T08:13:10.796Z,71.43
2019-02-02T08:15:39.395Z,67.77
2019-02-02T08:18:08.006Z,74.97
2019-02-02T08:20:37.642Z,69.93
2019-02-02T08:23:06.294Z,77.47
2019-02-02T08:25:34.887Z,77.23
2019-02-02T08:28:03.818Z,71.43
2019-02-02T08:30:35.682Z,75.87
2019-02-02T08:33:03.219Z,72.83
2019-02-02T08:35:31.804Z,68.87
2019-02-02T08:38:00.490Z,71.77
2019-02-02T08:40:29.050Z,74.33
2019-02-02T08:42:57.653Z,70.50
2019-02-02T08:45:26.290Z,69.40
2019-02-02T08:47:54.958Z,71.63
2019-02-02T08:50:27.870Z,72.97
2019-02-02T08:52:56.507Z,67.27
2019-02-02T08:55:25.130Z,68.97
2019-02-02T08:57:53.924Z,70.90
2019-02-02T09:00:23.922Z,73.63
2019-02-02T09:02:52.595Z,70.87
2019-02-02T09:05:23.708Z,73.53
2019-02-02T09:07:52.315Z,75.70
2019-02-02T09:10:21.812Z,71.77
2019-02-02T09:12:50.489Z,76.60
2019-02-02T09:15:19.214Z,78.70
2019-02-02T09:17:47.871Z,72.40
2019-02-02T09:20:16.487Z,80.23
2019-02-02T09:22:45.323Z,69.70
2019-02-02T09:25:14.516Z,73.03
2019-02-02T09:27:44.384Z,73.90
2019-02-02T09:30:35.218Z,75.40
2019-02-02T09:33:03.877Z,76.07
2019-02-02T09:35:32.615Z,72.80
2019-02-02T09:38:01.381Z,80.10
2019-02-02T09:40:30.146Z,78.57
2019-02-02T09:42:58.734Z,84.50
2019-02-02T09:45:27.359Z,87.33
2019-02-02T09:47:57.049Z,89.13
2019-02-02T09:50:25.751Z,77.70
2019-02-02T09:52:54.398Z,85.87
2019-02-02T09:55:23.332Z,79.50
2019-02-02T09:57:54.944Z,82.17
2019-02-02T10:00:24.080Z,82.73
2019-02-02T10:02:52.665Z,79.53
2019-02-02T10:05:22.467Z,81.07
2019-02-02T10:07:51.175Z,87.83
2019-02-02T10:10:20.775Z,84.50
2019-02-02T10:12:49.408Z,79.90
2019-02-02T10:15:18.275Z,84.00
2019-02-02T10:17:49.669Z,80.47
2019-02-02T10:20:18.133Z,80.50
2019-02-02T10:22:46.759Z,82.53
2019-02-02T10:25:16.477Z,87.17
2019-02-02T10:27:45.070Z,85.33
2019-02-02T10:30:32.811Z,81.90
2019-02-02T10:33:02.341Z,90.03
2019-02-02T10:35:32.127Z,90.27
2019-02-02T10:38:00.769Z,80.90
2019-02-02T10:40:30.158Z,85.97
2019-02-02T10:42:58.908Z,91.13
2019-02-02T10:45:27.467Z,88.30
2019-02-02T10:47:56.024Z,84.23
2019-02-02T10:50:24.748Z,87.53
2019-02-02T10:52:53.304Z,83.67
2019-02-02T10:55:22.224Z,89.63
2019-02-02T10:57:50.828Z,85.63
2019-02-02T11:00:29.515Z,88.47
2019-02-02T11:02:58.103Z,89.27
2019-02-02T11:05:26.813Z,87.57
2019-02-02T11:07:55.389Z,89.03
2019-02-02T11:10:24.910Z,91.27
2019-02-02T11:12:53.651Z,81.57
2019-02-02T11:15:22.307Z,83.93
2019-02-02T11:17:51.059Z,95.57
2019-02-02T11:20:20.878Z,86.80
2019-02-02T11:22:49.515Z,85.37
2019-02-02T11:25:18.160Z,86.73
2019-02-02T11:27:46.738Z,89.37
2019-02-02T11:30:16.136Z,87.23
2019-02-02T11:32:44.889Z,91.57
2019-02-02T11:35:13.866Z,90.53
2019-02-02T11:37:42.470Z,88.23
2019-02-02T11:40:12.785Z,91.57
2019-02-02T11:42:41.474Z,88.77
2019-02-02T11:45:10.375Z,91.57
2019-02-02T11:47:39.001Z,92.93
2019-02-02T11:50:08.432Z,89.60
2019-02-02T11:52:37.003Z,87.37
2019-02-02T11:55:05.798Z,93.53
2019-02-02T11:57:34.719Z,89.23
2019-02-02T12:00:04.691Z,86.83
2019-02-02T12:02:33.394Z,92.77
2019-02-02T12:05:02.027Z,87.30
2019-02-02T12:07:31.725Z,93.10
2019-02-02T12:10:00.435Z,88.87
2019-02-02T12:12:29.094Z,88.33
2019-02-02T12:14:58.635Z,86.70
2019-02-02T12:17:27.241Z,85.17
2019-02-02T12:19:55.856Z,89.50
2019-02-02T12:22:24.416Z,82.20
2019-02-02T12:24:53.023Z,86.90
2019-02-02T12:27:21.701Z,92.40
2019-02-02T12:29:51.301Z,88.57
2019-02-02T12:32:26.843Z,87.87
2019-02-02T12:34:50.150Z,88.67
2019-02-02T12:37:18.729Z,92.63
2019-02-02T12:39:47.318Z,93.97
2019-02-02T12:42:16.118Z,78.73
2019-02-02T12:44:44.702Z,90.37
2019-02-02T12:47:13.345Z,91.73
2019-02-02T12:49:42.135Z,96.00
2019-02-02T12:52:10.689Z,87.73
2019-02-02T12:54:39.319Z,89.43
2019-02-02T12:57:08.022Z,86.10
2019-02-02T12:59:38.145Z,87.07
2019-02-02T13:02:06.803Z,84.53
2019-02-02T13:04:35.362Z,88.23
2019-02-02T13:07:04.117Z,89.17
2019-02-02T13:09:32.732Z,90.93
2019-02-02T13:12:01.339Z,86.00
2019-02-02T13:14:29.968Z,90.83
2019-02-02T13:17:00.024Z,86.47
2019-02-02T13:19:28.875Z,93.43
2019-02-02T13:21:57.654Z,93.40
2019-02-02T13:24:26.345Z,101.13
2019-02-02T13:26:55.044Z,89.03
2019-02-02T13:29:23.615Z,87.20
2019-02-02T13:31:52.224Z,90.63
2019-02-02T13:34:20.878Z,87.53
2019-02-02T13:36:49.557Z,91.10
2019-02-02T13:39:18.214Z,83.33
2019-02-02T13:41:46.847Z,87.40
2019-02-02T13:44:15.446Z,87.10
2019-02-02T13:46:44.173Z,87.83
2019-02-02T13:49:12.809Z,82.00
2019-02-02T13:51:41.468Z,81.90
2019-02-02T13:54:10.054Z,89.20
2019-02-02T13:56:38.615Z,84.27
2019-02-02T13:59:07.294Z,80.23
2019-02-02T14:01:42.268Z,84.53
2019-02-02T14:04:07.410Z,78.17
2019-02-02T14:06:36.103Z,82.33
2019-02-02T14:09:07.097Z,85.20
2019-02-02T14:11:36.021Z,78.83
2019-02-02T14:14:04.702Z,82.30
2019-02-02T14:16:33.354Z,81.70
2019-02-02T14:19:02.066Z,78.33
2019-02-02T14:21:30.702Z,81.07
2019-02-02T14:23:59.304Z,74.70
2019-02-02T14:26:27.975Z,82.67
2019-02-02T14:28:56.620Z,79.17
2019-02-02T14:31:25.353Z,77.67
2019-02-02T14:33:54.043Z,75.53
2019-02-02T14:36:22.690Z,83.53
2019-02-02T14:38:51.286Z,80.07
2019-02-02T14:41:19.943Z,80.30
2019-02-02T14:43:48.534Z,72.40
2019-02-02T14:46:17.109Z,74.70
2019-02-02T14:48:45.705Z,77.57
2019-02-02T14:51:14.371Z,70.10
2019-02-02T14:53:42.993Z,78.07
2019-02-02T14:56:11.743Z,72.47
2019-02-02T14:58:40.468Z,75.77
2019-02-02T15:01:09.200Z,78.10
2019-02-02T15:03:37.907Z,79.90
2019-02-02T15:06:09.514Z,77.43
2019-02-02T15:08:37.218Z,69.10
2019-02-02T15:11:06.145Z,75.93
2019-02-02T15:13:34.856Z,73.50
2019-02-02T15:16:03.517Z,68.43
2019-02-02T15:18:32.183Z,69.00
2019-02-02T15:21:00.843Z,71.63
2019-02-02T15:23:29.492Z,69.90
2019-02-02T15:25:58.206Z,69.77
2019-02-02T15:28:26.878Z,71.23
2019-02-02T15:30:55.475Z,68.70
2019-02-02T15:33:24.072Z,75.93
2019-02-02T15:35:52.654Z,66.83
2019-02-02T15:38:21.425Z,73.50
2019-02-02T15:40:58.821Z,78.73
2019-02-02T15:43:22.232Z,70.83
2019-02-02T15:45:50.644Z,67.30
2019-02-02T15:48:19.297Z,68.37
2019-02-02T15:50:47.988Z,72.00
2019-02-02T15:53:16.618Z,72.63
2019-02-02T15:55:45.283Z,74.10
2019-02-02T15:58:13.904Z,70.97
2019-02-02T16:00:42.493Z,67.50
2019-02-02T16:03:11.130Z,70.80
2019-02-02T16:05:39.705Z,66.20
2019-02-02T16:08:09.746Z,71.70
2019-02-02T16:10:38.406Z,69.47
2019-02-02T16:13:06.977Z,67.53
2019-02-02T16:15:35.770Z,68.20
2019-02-02T16:18:04.366Z,67.57
2019-02-02T16:20:34.268Z,73.40
2019-02-02T16:23:02.885Z,71.97
2019-02-02T16:25:31.631Z,76.20
2019-02-02T16:28:00.177Z,67.97
2019-02-02T16:30:28.867Z,67.90
2019-02-02T16:32:57.518Z,66.40
2019-02-02T16:35:26.114Z,78.10
2019-02-02T16:37:54.793Z,74.03
2019-02-02T16:40:24.069Z,68.87
2019-02-02T16:42:53.820Z,74.00
2019-02-02T16:45:23.602Z,73.27
2019-02-02T16:47:52.642Z,73.47
2019-02-02T16:50:21.245Z,72.00
2019-02-02T16:52:49.896Z,67.97
2019-02-02T16:55:18.665Z,67.90
2019-02-02T16:57:47.266Z,73.57
2019-02-02T17:00:16.869Z,70.30
2019-02-02T17:02:45.519Z,68.13
2019-02-02T17:05:14.100Z,70.23
2019-02-02T17:07:42.773Z,68.27
2019-02-02T17:10:12.910Z,69.13
2019-02-02T17:12:41.560Z,68.63
2019-02-02T17:15:10.190Z,71.03
2019-02-02T17:17:38.825Z,68.30
2019-02-02T17:20:09.402Z,69.23
2019-02-02T17:22:38.031Z,71.30
2019-02-02T17:25:07.401Z,70.40
2019-02-02T17:27:35.999Z,69.60
2019-02-02T17:30:05.667Z,65.63
2019-02-02T17:32:34.373Z,72.27
2019-02-02T17:35:03.078Z,69.47
2019-02-02T17:37:32.665Z,72.27
2019-02-02T17:40:01.287Z,63.80
2019-02-02T17:42:29.946Z,65.77
2019-02-02T17:44:59.125Z,70.30
2019-02-02T17:47:27.851Z,70.23
2019-02-02T17:49:56.433Z,69.03
2019-02-02T17:52:25.058Z,70.70
2019-02-02T17:54:53.660Z,66.37
2019-02-02T17:57:22.442Z,65.17
2019-02-02T17:59:51.175Z,67.67
2019-02-02T18:02:19.736Z,71.63
2019-02-02T18:04:48.355Z,63.40
2019-02-02T18:07:17.053Z,68.60
2019-02-02T18:09:46.884Z,69.07
2019-02-02T18:12:15.647Z,69.63
2019-02-02T18:14:44.291Z,72.10
2019-02-02T18:17:12.964Z,69.23
2019-02-02T18:19:42.537Z,69.63
2019-02-02T18:22:11.123Z,64.97
2019-02-02T18:24:39.716Z,74.67
2019-02-02T18:27:08.300Z,66.90
2019-02-02T18:29:36.903Z,71.77
2019-02-02T18:32:12.795Z,66.27
2019-02-02T18:34:36.838Z,67.30
2019-02-02T18:37:05.466Z,69.50
2019-02-02T18:39:34.186Z,74.67
2019-02-02T18:42:02.802Z,74.97
2019-02-02T18:44:31.393Z,77.40
2019-02-02T18:47:00.124Z,75.25
2019-02-02T18:49:28.723Z,69.67
2019-02-02T18:51:57.424Z,73.57
2019-02-02T18:54:26.126Z,78.57
2019-02-02T18:56:54.788Z,76.13
2019-02-02T18:59:23.466Z,68.97
2019-02-02T19:01:53.288Z,75.63
2019-02-02T19:04:21.899Z,71.10
2019-02-02T19:06:50.555Z,71.30
2019-02-02T19:09:19.397Z,75.73
2019-02-02T19:11:48.137Z,74.20
2019-02-02T19:14:16.741Z,71.77
2019-02-02T19:16:45.355Z,69.57
2019-02-02T19:19:13.959Z,74.67
2019-02-02T19:21:42.703Z,73.97
2019-02-02T19:24:11.304Z,72.90
2019-02-02T19:26:40.043Z,79.23
2019-02-02T19:29:08.870Z,75.10
2019-02-02T19:31:37.777Z,76.13
2019-02-02T19:34:06.413Z,72.13
2019-02-02T19:36:35.047Z,74.50
2019-02-02T19:39:05.873Z,72.60
2019-02-02T19:41:35.375Z,68.75
2019-02-02T19:44:04.222Z,78.33
2019-02-02T19:46:32.899Z,74.87
2019-02-02T19:49:01.642Z,75.10
2019-02-02T19:51:33.498Z,74.90
2019-02-02T19:54:01.728Z,75.20
2019-02-02T19:56:30.394Z,75.80
2019-02-02T19:58:59.048Z,72.67
2019-02-02T20:01:27.684Z,70.13
2019-02-02T20:03:56.533Z,78.70
2019-02-02T20:06:25.238Z,70.83
2019-02-02T20:08:54.009Z,74.17
2019-02-02T20:11:22.695Z,70.63
2019-02-02T20:13:51.517Z,77.23
2019-02-02T20:16:20.677Z,77.13
2019-02-02T20:18:49.344Z,76.33
2019-02-02T20:21:18.000Z,78.63
2019-02-02T20:23:46.677Z,75.63
2019-02-02T20:26:15.333Z,73.37
2019-02-02T20:28:46.671Z,75.20
2019-02-02T20:31:14.303Z,82.47
2019-02-02T20:33:42.895Z,77.33
2019-02-02T20:36:11.549Z,80.97
2019-02-02T20:38:40.298Z,72.47
2019-02-02T20:41:09.069Z,72.90
2019-02-02T20:43:37.730Z,77.47
2019-02-02T20:46:06.726Z,72.07
2019-02-02T20:48:35.689Z,70.67
2019-02-02T20:51:04.620Z,71.33
2019-02-02T20:53:33.310Z,67.63
2019-02-02T20:56:02.015Z,67.37
2019-02-02T20:58:30.770Z,72.03
2019-02-02T21:00:59.544Z,76.80
2019-02-02T21:03:28.196Z,67.07
2019-02-02T21:05:56.805Z,67.13
2019-02-02T21:08:25.525Z,66.60
2019-02-02T21:10:54.184Z,73.50
2019-02-02T21:13:22.851Z,69.90
2019-02-02T21:15:51.509Z,72.17
2019-02-02T21:18:20.469Z,63.27
2019-02-02T21:20:49.078Z,74.40
2019-02-02T21:23:17.767Z,72.43
2019-02-02T21:25:46.643Z,70.93
2019-02-02T21:28:15.833Z,71.20
2019-02-02T21:30:44.845Z,71.00
2019-02-02T21:33:13.706Z,68.67
2019-02-02T21:35:42.367Z,74.93
2019-02-02T21:38:11.074Z,69.40
2019-02-02T21:40:40.668Z,69.63
2019-02-02T21:43:09.573Z,70.63
2019-02-02T21:45:38.549Z,73.30
2019-02-02T21:48:07.296Z,71.17
2019-02-02T21:50:35.933Z,73.57
2019-02-02T21:53:04.699Z,68.20
2019-02-02T21:55:33.367Z,68.90
2019-02-02T21:58:01.995Z,69.60
2019-02-02T22:00:35.368Z,67.93
2019-02-02T22:03:04.113Z,67.47
2019-02-02T22:05:32.802Z,71.03
2019-02-02T22:08:01.472Z,64.87
2019-02-02T22:10:30.159Z,65.70
2019-02-02T22:12:59.426Z,67.47
2019-02-02T22:15:28.156Z,71.20
2019-02-02T22:17:56.943Z,63.70
2019-02-02T22:20:25.573Z,65.83
2019-02-02T22:22:55.459Z,63.70
2019-02-02T22:25:25.582Z,64.80
2019-02-02T22:27:54.157Z,68.33
2019-02-02T22:30:23.927Z,67.93
2019-02-02T22:32:52.621Z,70.73
2019-02-02T22:35:21.243Z,65.97
2019-02-02T22:37:49.926Z,66.73
2019-02-02T22:40:19.301Z,68.93
2019-02-02T22:42:48.169Z,67.47
2019-02-02T22:45:17.220Z,69.67
2019-02-02T22:47:45.982Z,66.47
2019-02-02T22:50:15.620Z,64.10
2019-02-02T22:52:44.744Z,64.70
2019-02-02T22:55:13.632Z,64.63
2019-02-02T22:57:42.214Z,71.20
2019-02-02T23:00:32.826Z,69.30
2019-02-02T23:03:01.704Z,66.10
2019-02-02T23:05:41.856Z,64.23
2019-02-02T23:08:22.588Z,66.70
2019-02-02T23:11:09.315Z,61.60
2019-02-02T23:13:56.285Z,64.77
2019-02-02T23:16:28.394Z,63.47
2019-02-02T23:18:57.526Z,66.27
2019-02-02T23:21:26.301Z,64.00
2019-02-02T23:23:54.968Z,64.27
2019-02-02T23:26:23.652Z,64.53
2019-02-02T23:28:52.343Z,63.83
2019-02-02T23:31:21.331Z,65.70
2019-02-02T23:33:50.067Z,61.30
2019-02-02T23:36:18.778Z,63.30
2019-02-02T23:38:47.406Z,65.47
2019-02-02T23:41:16.129Z,58.80
2019-02-02T23:43:44.749Z,61.83
2019-02-02T23:46:13.721Z,64.07
2019-02-02T23:48:42.345Z,61.70
2019-02-02T23:51:11.051Z,60.43
2019-02-02T23:53:39.694Z,54.30
2019-02-02T23:56:08.327Z,58.03
2019-02-02T23:58:36.965Z,56.77
